sensor_id;sensor_type;location;lat;lon;timestamp;P1;durP1;ratioP1;P2;durP2;ratioP2
16892;SDS011;8563;52.242;9.098;2023-03-29T00:02:29;4.30;;;1.93;;
16892;SDS011;8563;52.242;9.098;2023-03-29T00:05:02;3.63;;;1.70;;
16892;SDS011;8563;52.242;9.098;2023-03-29T00:07:35;3.50;;;1.90;;
16892;SDS011;8563;52.242;9.098;2023-03-29T00:10:09;2.00;;;1.53;;
16892;SDS011;8563;52.242;9.098;2023-03-29T00:12:42;4.47;;;2.03;;
16892;SDS011;8563;52.242;9.098;2023-03-29T00:15:14;5.47;;;2.40;;
16892;SDS011;8563;52.242;9.098;2023-03-29T00:17:47;2.87;;;1.97;;
16892;SDS011;8563;52.242;9.098;2023-03-29T00:20:19;5.10;;;2.20;;
16892;SDS011;8563;52.242;9.098;2023-03-29T00:22:51;3.47;;;2.33;;
16892;SDS011;8563;52.242;9.098;2023-03-29T00:25:25;4.83;;;2.37;;
16892;SDS011;8563;52.242;9.098;2023-03-29T00:27:58;3.30;;;2.17;;
16892;SDS011;8563;52.242;9.098;2023-03-29T00:30:30;3.70;;;2.40;;
16892;SDS011;8563;52.242;9.098;2023-03-29T00:33:02;4.67;;;2.40;;
16892;SDS011;8563;52.242;9.098;2023-03-29T00:35:36;4.40;;;2.00;;
16892;SDS011;8563;52.242;9.098;2023-03-29T00:38:08;4.03;;;2.50;;
16892;SDS011;8563;52.242;9.098;2023-03-29T00:40:42;5.13;;;2.13;;
16892;SDS011;8563;52.242;9.098;2023-03-29T00:43:16;3.93;;;2.40;;
16892;SDS011;8563;52.242;9.098;2023-03-29T00:45:48;4.40;;;2.17;;
16892;SDS011;8563;52.242;9.098;2023-03-29T00:48:21;3.33;;;2.33;;
16892;SDS011;8563;52.242;9.098;2023-03-29T00:50:56;3.50;;;2.30;;
16892;SDS011;8563;52.242;9.098;2023-03-29T00:53:34;4.70;;;2.40;;
16892;SDS011;8563;52.242;9.098;2023-03-29T00:56:11;4.93;;;2.33;;
16892;SDS011;8563;52.242;9.098;2023-03-29T00:58:46;3.63;;;2.30;;
16892;SDS011;8563;52.242;9.098;2023-03-29T01:01:22;4.80;;;2.40;;
16892;SDS011;8563;52.242;9.098;2023-03-29T01:04:00;3.13;;;2.23;;
16892;SDS011;8563;52.242;9.098;2023-03-29T01:06:37;2.87;;;2.40;;
16892;SDS011;8563;52.242;9.098;2023-03-29T01:09:12;3.20;;;2.07;;
16892;SDS011;8563;52.242;9.098;2023-03-29T01:11:48;3.93;;;2.40;;
16892;SDS011;8563;52.242;9.098;2023-03-29T01:14:25;3.30;;;2.37;;
16892;SDS011;8563;52.242;9.098;2023-03-29T01:17:02;4.53;;;2.47;;
16892;SDS011;8563;52.242;9.098;2023-03-29T01:19:37;3.93;;;2.10;;
16892;SDS011;8563;52.242;9.098;2023-03-29T01:22:18;3.40;;;2.50;;
16892;SDS011;8563;52.242;9.098;2023-03-29T01:25:01;4.63;;;2.73;;
16892;SDS011;8563;52.242;9.098;2023-03-29T01:27:50;3.43;;;2.30;;
16892;SDS011;8563;52.242;9.098;2023-03-29T01:30:25;2.70;;;2.13;;
16892;SDS011;8563;52.242;9.098;2023-03-29T01:33:01;3.50;;;1.97;;
16892;SDS011;8563;52.242;9.098;2023-03-29T01:35:38;3.03;;;2.13;;
16892;SDS011;8563;52.242;9.098;2023-03-29T01:38:14;3.57;;;2.50;;
16892;SDS011;8563;52.242;9.098;2023-03-29T01:40:51;3.10;;;2.23;;
16892;SDS011;8563;52.242;9.098;2023-03-29T01:43:26;3.97;;;2.30;;
16892;SDS011;8563;52.242;9.098;2023-03-29T01:46:03;2.70;;;2.00;;
16892;SDS011;8563;52.242;9.098;2023-03-29T01:48:40;4.03;;;2.00;;
16892;SDS011;8563;52.242;9.098;2023-03-29T01:51:17;2.33;;;2.13;;
16892;SDS011;8563;52.242;9.098;2023-03-29T01:53:55;2.70;;;2.10;;
16892;SDS011;8563;52.242;9.098;2023-03-29T01:56:33;3.13;;;2.40;;
16892;SDS011;8563;52.242;9.098;2023-03-29T01:59:10;3.03;;;2.30;;
16892;SDS011;8563;52.242;9.098;2023-03-29T02:01:46;2.13;;;1.93;;
16892;SDS011;8563;52.242;9.098;2023-03-29T02:04:23;3.77;;;2.20;;
16892;SDS011;8563;52.242;9.098;2023-03-29T02:07:00;2.70;;;1.90;;
16892;SDS011;8563;52.242;9.098;2023-03-29T02:09:34;3.23;;;2.10;;
16892;SDS011;8563;52.242;9.098;2023-03-29T02:12:08;3.23;;;2.73;;
16892;SDS011;8563;52.242;9.098;2023-03-29T02:14:43;3.20;;;2.43;;
16892;SDS011;8563;52.242;9.098;2023-03-29T02:17:16;4.63;;;2.73;;
16892;SDS011;8563;52.242;9.098;2023-03-29T02:19:52;3.30;;;2.70;;
16892;SDS011;8563;52.242;9.098;2023-03-29T02:22:29;3.03;;;2.50;;
16892;SDS011;8563;52.242;9.098;2023-03-29T02:25:06;3.73;;;2.50;;
16892;SDS011;8563;52.242;9.098;2023-03-29T02:27:41;3.27;;;2.50;;
16892;SDS011;8563;52.242;9.098;2023-03-29T02:30:15;3.53;;;2.37;;
16892;SDS011;8563;52.242;9.098;2023-03-29T02:32:51;3.70;;;2.30;;
16892;SDS011;8563;52.242;9.098;2023-03-29T02:35:30;2.63;;;2.17;;
16892;SDS011;8563;52.242;9.098;2023-03-29T02:38:06;2.43;;;2.17;;
16892;SDS011;8563;52.242;9.098;2023-03-29T02:40:41;4.10;;;2.80;;
16892;SDS011;8563;52.242;9.098;2023-03-29T02:43:14;4.03;;;2.50;;
16892;SDS011;8563;52.242;9.098;2023-03-29T02:45:49;3.00;;;2.40;;
16892;SDS011;8563;52.242;9.098;2023-03-29T02:48:23;4.83;;;2.50;;
16892;SDS011;8563;52.242;9.098;2023-03-29T02:50:59;2.80;;;2.47;;
16892;SDS011;8563;52.242;9.098;2023-03-29T02:53:34;3.70;;;2.50;;
16892;SDS011;8563;52.242;9.098;2023-03-29T02:56:12;3.53;;;2.60;;
16892;SDS011;8563;52.242;9.098;2023-03-29T02:58:44;3.10;;;2.43;;
16892;SDS011;8563;52.242;9.098;2023-03-29T03:01:18;3.63;;;2.40;;
16892;SDS011;8563;52.242;9.098;2023-03-29T03:03:53;3.00;;;2.17;;
16892;SDS011;8563;52.242;9.098;2023-03-29T03:06:26;2.67;;;2.00;;
16892;SDS011;8563;52.242;9.098;2023-03-29T03:08:58;3.70;;;2.30;;
16892;SDS011;8563;52.242;9.098;2023-03-29T03:11:34;2.97;;;2.40;;
16892;SDS011;8563;52.242;9.098;2023-03-29T03:14:06;2.60;;;2.20;;
16892;SDS011;8563;52.242;9.098;2023-03-29T03:16:40;5.40;;;2.50;;
16892;SDS011;8563;52.242;9.098;2023-03-29T03:19:12;3.90;;;2.63;;
16892;SDS011;8563;52.242;9.098;2023-03-29T03:21:46;3.83;;;2.50;;
16892;SDS011;8563;52.242;9.098;2023-03-29T03:24:19;4.67;;;2.90;;
16892;SDS011;8563;52.242;9.098;2023-03-29T03:26:51;3.17;;;2.63;;
16892;SDS011;8563;52.242;9.098;2023-03-29T03:29:23;3.33;;;2.77;;
16892;SDS011;8563;52.242;9.098;2023-03-29T03:31:59;4.77;;;2.83;;
16892;SDS011;8563;52.242;9.098;2023-03-29T03:34:58;3.60;;;2.90;;
16892;SDS011;8563;52.242;9.098;2023-03-29T03:37:30;3.63;;;2.67;;
16892;SDS011;8563;52.242;9.098;2023-03-29T03:40:03;4.53;;;2.83;;
16892;SDS011;8563;52.242;9.098;2023-03-29T03:42:41;3.03;;;2.60;;
16892;SDS011;8563;52.242;9.098;2023-03-29T03:45:14;3.53;;;2.90;;
16892;SDS011;8563;52.242;9.098;2023-03-29T03:48:04;4.43;;;2.93;;
16892;SDS011;8563;52.242;9.098;2023-03-29T03:50:48;3.20;;;2.60;;
16892;SDS011;8563;52.242;9.098;2023-03-29T03:53:22;3.47;;;3.00;;
16892;SDS011;8563;52.242;9.098;2023-03-29T03:56:27;5.87;;;3.00;;
16892;SDS011;8563;52.242;9.098;2023-03-29T03:59:00;3.70;;;2.90;;
16892;SDS011;8563;52.242;9.098;2023-03-29T04:01:36;4.00;;;2.90;;
16892;SDS011;8563;52.242;9.098;2023-03-29T04:04:21;4.43;;;2.67;;
16892;SDS011;8563;52.242;9.098;2023-03-29T04:07:05;3.80;;;2.70;;
16892;SDS011;8563;52.242;9.098;2023-03-29T04:09:57;4.07;;;3.00;;
16892;SDS011;8563;52.242;9.098;2023-03-29T04:12:53;4.83;;;2.57;;
16892;SDS011;8563;52.242;9.098;2023-03-29T04:15:26;4.03;;;2.97;;
16892;SDS011;8563;52.242;9.098;2023-03-29T04:18:07;3.10;;;2.80;;
16892;SDS011;8563;52.242;9.098;2023-03-29T04:20:50;4.20;;;3.03;;
16892;SDS011;8563;52.242;9.098;2023-03-29T04:23:25;4.10;;;3.40;;
16892;SDS011;8563;52.242;9.098;2023-03-29T04:25:57;5.40;;;3.10;;
16892;SDS011;8563;52.242;9.098;2023-03-29T04:28:43;3.93;;;3.00;;
16892;SDS011;8563;52.242;9.098;2023-03-29T04:31:20;3.83;;;3.20;;
16892;SDS011;8563;52.242;9.098;2023-03-29T04:33:59;3.50;;;3.20;;
16892;SDS011;8563;52.242;9.098;2023-03-29T04:36:33;4.23;;;3.00;;
16892;SDS011;8563;52.242;9.098;2023-03-29T04:39:07;4.03;;;3.00;;
16892;SDS011;8563;52.242;9.098;2023-03-29T04:41:40;5.53;;;3.07;;
16892;SDS011;8563;52.242;9.098;2023-03-29T04:44:25;4.77;;;3.60;;
16892;SDS011;8563;52.242;9.098;2023-03-29T04:47:00;4.67;;;3.13;;
16892;SDS011;8563;52.242;9.098;2023-03-29T04:49:41;5.27;;;3.47;;
16892;SDS011;8563;52.242;9.098;2023-03-29T04:52:22;6.73;;;3.50;;
16892;SDS011;8563;52.242;9.098;2023-03-29T04:54:54;4.70;;;3.43;;
16892;SDS011;8563;52.242;9.098;2023-03-29T04:57:42;4.90;;;3.23;;
16892;SDS011;8563;52.242;9.098;2023-03-29T05:00:23;4.43;;;3.47;;
16892;SDS011;8563;52.242;9.098;2023-03-29T05:02:56;5.50;;;3.43;;
16892;SDS011;8563;52.242;9.098;2023-03-29T05:05:30;4.63;;;3.53;;
16892;SDS011;8563;52.242;9.098;2023-03-29T05:08:06;5.43;;;3.33;;
16892;SDS011;8563;52.242;9.098;2023-03-29T05:11:09;6.13;;;3.57;;
16892;SDS011;8563;52.242;9.098;2023-03-29T05:13:43;5.97;;;3.17;;
16892;SDS011;8563;52.242;9.098;2023-03-29T05:16:15;3.77;;;3.43;;
16892;SDS011;8563;52.242;9.098;2023-03-29T05:18:48;3.83;;;3.20;;
16892;SDS011;8563;52.242;9.098;2023-03-29T05:21:21;6.27;;;3.60;;
16892;SDS011;8563;52.242;9.098;2023-03-29T05:23:57;5.57;;;3.30;;
16892;SDS011;8563;52.242;9.098;2023-03-29T05:26:47;5.87;;;3.70;;
16892;SDS011;8563;52.242;9.098;2023-03-29T05:29:21;4.53;;;3.43;;
16892;SDS011;8563;52.242;9.098;2023-03-29T05:32:02;7.27;;;3.80;;
16892;SDS011;8563;52.242;9.098;2023-03-29T05:34:34;5.27;;;3.63;;
16892;SDS011;8563;52.242;9.098;2023-03-29T05:37:06;4.33;;;3.40;;
16892;SDS011;8563;52.242;9.098;2023-03-29T05:39:52;9.07;;;4.00;;
16892;SDS011;8563;52.242;9.098;2023-03-29T05:42:29;4.53;;;3.50;;
16892;SDS011;8563;52.242;9.098;2023-03-29T05:45:05;4.57;;;3.77;;
16892;SDS011;8563;52.242;9.098;2023-03-29T05:47:38;4.60;;;3.60;;
16892;SDS011;8563;52.242;9.098;2023-03-29T05:50:10;6.27;;;4.00;;
16892;SDS011;8563;52.242;9.098;2023-03-29T05:52:43;5.73;;;3.43;;
16892;SDS011;8563;52.242;9.098;2023-03-29T05:55:17;4.60;;;3.73;;
16892;SDS011;8563;52.242;9.098;2023-03-29T05:57:49;4.23;;;3.43;;
16892;SDS011;8563;52.242;9.098;2023-03-29T06:00:25;6.20;;;4.20;;
16892;SDS011;8563;52.242;9.098;2023-03-29T06:03:13;5.40;;;4.00;;
16892;SDS011;8563;52.242;9.098;2023-03-29T06:05:54;5.00;;;3.67;;
16892;SDS011;8563;52.242;9.098;2023-03-29T06:08:28;4.73;;;3.63;;
16892;SDS011;8563;52.242;9.098;2023-03-29T06:11:25;5.97;;;4.07;;
16892;SDS011;8563;52.242;9.098;2023-03-29T06:14:16;3.77;;;3.30;;
16892;SDS011;8563;52.242;9.098;2023-03-29T06:16:54;5.00;;;3.70;;
16892;SDS011;8563;52.242;9.098;2023-03-29T06:19:26;5.60;;;4.10;;
16892;SDS011;8563;52.242;9.098;2023-03-29T06:21:58;5.37;;;4.00;;
16892;SDS011;8563;52.242;9.098;2023-03-29T06:24:32;6.50;;;4.27;;
16892;SDS011;8563;52.242;9.098;2023-03-29T06:27:12;4.10;;;3.70;;
16892;SDS011;8563;52.242;9.098;2023-03-29T06:29:44;6.67;;;3.87;;
16892;SDS011;8563;52.242;9.098;2023-03-29T06:32:17;4.47;;;3.50;;
16892;SDS011;8563;52.242;9.098;2023-03-29T06:34:52;8.10;;;4.13;;
16892;SDS011;8563;52.242;9.098;2023-03-29T06:37:33;5.07;;;4.07;;
16892;SDS011;8563;52.242;9.098;2023-03-29T06:40:22;4.50;;;3.70;;
16892;SDS011;8563;52.242;9.098;2023-03-29T06:42:56;7.03;;;4.23;;
16892;SDS011;8563;52.242;9.098;2023-03-29T06:45:35;5.10;;;3.70;;
16892;SDS011;8563;52.242;9.098;2023-03-29T06:48:15;4.53;;;3.33;;
16892;SDS011;8563;52.242;9.098;2023-03-29T06:50:47;7.03;;;3.30;;
16892;SDS011;8563;52.242;9.098;2023-03-29T06:53:20;7.63;;;3.93;;
16892;SDS011;8563;52.242;9.098;2023-03-29T06:55:59;6.50;;;3.47;;
16892;SDS011;8563;52.242;9.098;2023-03-29T06:58:46;5.40;;;3.77;;
16892;SDS011;8563;52.242;9.098;2023-03-29T07:01:37;3.87;;;3.07;;
16892;SDS011;8563;52.242;9.098;2023-03-29T07:04:25;4.33;;;3.23;;
16892;SDS011;8563;52.242;9.098;2023-03-29T07:07:26;7.33;;;3.80;;
16892;SDS011;8563;52.242;9.098;2023-03-29T07:10:25;5.77;;;3.63;;
16892;SDS011;8563;52.242;9.098;2023-03-29T07:13:30;4.80;;;3.43;;
16892;SDS011;8563;52.242;9.098;2023-03-29T07:16:07;4.93;;;3.60;;
16892;SDS011;8563;52.242;9.098;2023-03-29T07:19:02;5.80;;;3.63;;
16892;SDS011;8563;52.242;9.098;2023-03-29T07:21:52;3.40;;;3.10;;
16892;SDS011;8563;52.242;9.098;2023-03-29T07:24:33;5.20;;;3.93;;
16892;SDS011;8563;52.242;9.098;2023-03-29T07:27:05;4.90;;;3.40;;
16892;SDS011;8563;52.242;9.098;2023-03-29T07:29:37;4.33;;;3.63;;
16892;SDS011;8563;52.242;9.098;2023-03-29T07:32:12;4.07;;;3.43;;
16892;SDS011;8563;52.242;9.098;2023-03-29T07:34:47;3.30;;;3.00;;
16892;SDS011;8563;52.242;9.098;2023-03-29T07:37:26;4.27;;;3.43;;
16892;SDS011;8563;52.242;9.098;2023-03-29T07:40:00;4.77;;;4.00;;
16892;SDS011;8563;52.242;9.098;2023-03-29T07:42:47;5.90;;;3.50;;
16892;SDS011;8563;52.242;9.098;2023-03-29T07:45:23;5.00;;;3.27;;
16892;SDS011;8563;52.242;9.098;2023-03-29T07:48:10;3.80;;;3.07;;
16892;SDS011;8563;52.242;9.098;2023-03-29T07:51:03;6.33;;;4.00;;
16892;SDS011;8563;52.242;9.098;2023-03-29T07:53:48;6.37;;;3.80;;
16892;SDS011;8563;52.242;9.098;2023-03-29T07:56:38;4.60;;;3.53;;
16892;SDS011;8563;52.242;9.098;2023-03-29T07:59:19;4.43;;;3.20;;
16892;SDS011;8563;52.242;9.098;2023-03-29T08:01:59;4.40;;;3.13;;
16892;SDS011;8563;52.242;9.098;2023-03-29T08:04:39;4.37;;;3.17;;
16892;SDS011;8563;52.242;9.098;2023-03-29T08:07:20;3.77;;;3.37;;
16892;SDS011;8563;52.242;9.098;2023-03-29T08:09:59;4.33;;;2.90;;
16892;SDS011;8563;52.242;9.098;2023-03-29T08:13:10;5.17;;;3.47;;
16892;SDS011;8563;52.242;9.098;2023-03-29T08:16:08;7.80;;;3.10;;
16892;SDS011;8563;52.242;9.098;2023-03-29T08:18:47;4.17;;;3.73;;
16892;SDS011;8563;52.242;9.098;2023-03-29T08:21:21;4.77;;;3.40;;
16892;SDS011;8563;52.242;9.098;2023-03-29T08:23:54;3.77;;;3.30;;
16892;SDS011;8563;52.242;9.098;2023-03-29T08:26:33;5.50;;;3.63;;
16892;SDS011;8563;52.242;9.098;2023-03-29T08:29:06;4.03;;;3.47;;
16892;SDS011;8563;52.242;9.098;2023-03-29T08:31:39;5.27;;;3.33;;
16892;SDS011;8563;52.242;9.098;2023-03-29T08:34:11;5.97;;;3.20;;
16892;SDS011;8563;52.242;9.098;2023-03-29T08:37:05;6.27;;;3.40;;
16892;SDS011;8563;52.242;9.098;2023-03-29T08:39:43;6.90;;;3.23;;
16892;SDS011;8563;52.242;9.098;2023-03-29T08:42:48;5.33;;;3.93;;
16892;SDS011;8563;52.242;9.098;2023-03-29T08:45:59;4.70;;;3.37;;
16892;SDS011;8563;52.242;9.098;2023-03-29T08:48:40;5.13;;;3.60;;
16892;SDS011;8563;52.242;9.098;2023-03-29T08:51:21;5.43;;;3.67;;
16892;SDS011;8563;52.242;9.098;2023-03-29T08:53:58;5.57;;;3.63;;
16892;SDS011;8563;52.242;9.098;2023-03-29T08:56:56;4.50;;;3.30;;
16892;SDS011;8563;52.242;9.098;2023-03-29T08:59:41;8.67;;;3.40;;
16892;SDS011;8563;52.242;9.098;2023-03-29T09:02:20;6.27;;;3.67;;
16892;SDS011;8563;52.242;9.098;2023-03-29T09:04:59;6.87;;;3.20;;
16892;SDS011;8563;52.242;9.098;2023-03-29T09:07:49;5.23;;;3.27;;
16892;SDS011;8563;52.242;9.098;2023-03-29T09:10:24;3.97;;;3.30;;
16892;SDS011;8563;52.242;9.098;2023-03-29T09:13:09;5.80;;;3.37;;
16892;SDS011;8563;52.242;9.098;2023-03-29T09:15:56;5.13;;;3.30;;
16892;SDS011;8563;52.242;9.098;2023-03-29T09:18:42;4.90;;;3.10;;
16892;SDS011;8563;52.242;9.098;2023-03-29T09:21:27;6.40;;;3.57;;
16892;SDS011;8563;52.242;9.098;2023-03-29T09:24:09;4.17;;;3.77;;
16892;SDS011;8563;52.242;9.098;2023-03-29T09:27:15;5.60;;;3.60;;
16892;SDS011;8563;52.242;9.098;2023-03-29T09:30:11;5.03;;;3.80;;
16892;SDS011;8563;52.242;9.098;2023-03-29T09:32:59;6.87;;;3.73;;
16892;SDS011;8563;52.242;9.098;2023-03-29T09:35:48;5.87;;;3.33;;
16892;SDS011;8563;52.242;9.098;2023-03-29T09:38:26;4.90;;;3.30;;
16892;SDS011;8563;52.242;9.098;2023-03-29T09:41:03;4.13;;;3.10;;
16892;SDS011;8563;52.242;9.098;2023-03-29T09:43:40;5.67;;;3.23;;
16892;SDS011;8563;52.242;9.098;2023-03-29T09:46:19;5.57;;;3.40;;
16892;SDS011;8563;52.242;9.098;2023-03-29T09:48:54;5.73;;;3.90;;
16892;SDS011;8563;52.242;9.098;2023-03-29T09:51:27;7.23;;;5.93;;
16892;SDS011;8563;52.242;9.098;2023-03-29T09:54:03;4.83;;;3.63;;
16892;SDS011;8563;52.242;9.098;2023-03-29T09:57:01;4.97;;;3.20;;
16892;SDS011;8563;52.242;9.098;2023-03-29T09:59:36;5.77;;;3.33;;
16892;SDS011;8563;52.242;9.098;2023-03-29T10:02:08;5.60;;;3.50;;
16892;SDS011;8563;52.242;9.098;2023-03-29T10:04:42;6.77;;;3.40;;
16892;SDS011;8563;52.242;9.098;2023-03-29T10:07:16;4.80;;;3.63;;
16892;SDS011;8563;52.242;9.098;2023-03-29T10:09:54;6.80;;;3.60;;
16892;SDS011;8563;52.242;9.098;2023-03-29T10:12:27;5.47;;;3.27;;
16892;SDS011;8563;52.242;9.098;2023-03-29T10:15:01;6.43;;;4.00;;
16892;SDS011;8563;52.242;9.098;2023-03-29T10:17:37;4.03;;;3.27;;
16892;SDS011;8563;52.242;9.098;2023-03-29T10:20:13;4.30;;;3.43;;
16892;SDS011;8563;52.242;9.098;2023-03-29T10:22:53;4.70;;;3.17;;
16892;SDS011;8563;52.242;9.098;2023-03-29T10:25:27;7.20;;;5.30;;
16892;SDS011;8563;52.242;9.098;2023-03-29T10:28:02;6.70;;;4.00;;
16892;SDS011;8563;52.242;9.098;2023-03-29T10:30:38;11.63;;;8.77;;
16892;SDS011;8563;52.242;9.098;2023-03-29T10:33:13;4.87;;;4.13;;
16892;SDS011;8563;52.242;9.098;2023-03-29T10:35:48;6.33;;;3.57;;
16892;SDS011;8563;52.242;9.098;2023-03-29T10:38:22;6.67;;;3.10;;
16892;SDS011;8563;52.242;9.098;2023-03-29T10:41:01;5.23;;;3.70;;
16892;SDS011;8563;52.242;9.098;2023-03-29T10:43:38;4.03;;;3.27;;
16892;SDS011;8563;52.242;9.098;2023-03-29T10:46:18;4.90;;;3.33;;
16892;SDS011;8563;52.242;9.098;2023-03-29T10:48:54;3.90;;;2.90;;
16892;SDS011;8563;52.242;9.098;2023-03-29T10:51:27;3.40;;;3.10;;
16892;SDS011;8563;52.242;9.098;2023-03-29T10:54:00;6.30;;;3.43;;
16892;SDS011;8563;52.242;9.098;2023-03-29T10:56:35;3.53;;;2.73;;
16892;SDS011;8563;52.242;9.098;2023-03-29T10:59:23;5.27;;;3.57;;
16892;SDS011;8563;52.242;9.098;2023-03-29T11:05:16;5.17;;;3.53;;
16892;SDS011;8563;52.242;9.098;2023-03-29T11:08:00;5.43;;;3.27;;
16892;SDS011;8563;52.242;9.098;2023-03-29T11:10:55;6.10;;;5.40;;
16892;SDS011;8563;52.242;9.098;2023-03-29T11:13:39;5.50;;;3.93;;
16892;SDS011;8563;52.242;9.098;2023-03-29T11:16:22;4.63;;;3.80;;
16892;SDS011;8563;52.242;9.098;2023-03-29T11:19:05;5.37;;;3.40;;
16892;SDS011;8563;52.242;9.098;2023-03-29T11:21:59;5.70;;;4.17;;
16892;SDS011;8563;52.242;9.098;2023-03-29T11:24:46;5.77;;;3.63;;
16892;SDS011;8563;52.242;9.098;2023-03-29T11:27:31;4.33;;;3.87;;
16892;SDS011;8563;52.242;9.098;2023-03-29T11:30:11;5.73;;;3.87;;
16892;SDS011;8563;52.242;9.098;2023-03-29T11:32:49;5.50;;;3.80;;
16892;SDS011;8563;52.242;9.098;2023-03-29T11:35:38;4.53;;;3.83;;
16892;SDS011;8563;52.242;9.098;2023-03-29T11:38:20;5.70;;;4.00;;
16892;SDS011;8563;52.242;9.098;2023-03-29T11:40:59;5.70;;;3.60;;
16892;SDS011;8563;52.242;9.098;2023-03-29T11:43:34;5.13;;;3.33;;
16892;SDS011;8563;52.242;9.098;2023-03-29T11:46:11;5.53;;;3.83;;
16892;SDS011;8563;52.242;9.098;2023-03-29T11:48:48;4.87;;;3.67;;
16892;SDS011;8563;52.242;9.098;2023-03-29T11:51:25;6.03;;;5.10;;
16892;SDS011;8563;52.242;9.098;2023-03-29T11:54:03;6.03;;;4.20;;
16892;SDS011;8563;52.242;9.098;2023-03-29T11:56:43;4.97;;;4.40;;
16892;SDS011;8563;52.242;9.098;2023-03-29T11:59:20;6.40;;;4.60;;
16892;SDS011;8563;52.242;9.098;2023-03-29T12:01:58;5.57;;;4.20;;
16892;SDS011;8563;52.242;9.098;2023-03-29T12:04:36;7.17;;;4.90;;
16892;SDS011;8563;52.242;9.098;2023-03-29T12:07:14;5.90;;;5.27;;
16892;SDS011;8563;52.242;9.098;2023-03-29T12:09:50;6.83;;;6.10;;
16892;SDS011;8563;52.242;9.098;2023-03-29T12:12:28;7.27;;;5.33;;
16892;SDS011;8563;52.242;9.098;2023-03-29T12:15:09;6.47;;;4.57;;
16892;SDS011;8563;52.242;9.098;2023-03-29T12:17:50;6.37;;;5.13;;
16892;SDS011;8563;52.242;9.098;2023-03-29T12:20:31;8.83;;;5.20;;
16892;SDS011;8563;52.242;9.098;2023-03-29T12:23:10;5.90;;;4.90;;
16892;SDS011;8563;52.242;9.098;2023-03-29T12:25:47;7.90;;;5.23;;
16892;SDS011;8563;52.242;9.098;2023-03-29T12:28:29;7.30;;;5.10;;
16892;SDS011;8563;52.242;9.098;2023-03-29T12:31:19;7.03;;;5.60;;
16892;SDS011;8563;52.242;9.098;2023-03-29T12:34:19;14.37;;;11.50;;
16892;SDS011;8563;52.242;9.098;2023-03-29T12:40:22;13.37;;;10.77;;
16892;SDS011;8563;52.242;9.098;2023-03-29T12:43:20;5.37;;;4.67;;
16892;SDS011;8563;52.242;9.098;2023-03-29T12:46:16;4.67;;;3.80;;
16892;SDS011;8563;52.242;9.098;2023-03-29T12:48:52;5.90;;;4.33;;
16892;SDS011;8563;52.242;9.098;2023-03-29T12:51:28;5.90;;;4.37;;
16892;SDS011;8563;52.242;9.098;2023-03-29T12:54:02;7.73;;;4.77;;
16892;SDS011;8563;52.242;9.098;2023-03-29T12:56:40;5.43;;;4.87;;
16892;SDS011;8563;52.242;9.098;2023-03-29T12:59:25;6.20;;;4.57;;
16892;SDS011;8563;52.242;9.098;2023-03-29T13:04:57;4.93;;;4.40;;
16892;SDS011;8563;52.242;9.098;2023-03-29T13:07:32;6.23;;;4.93;;
16892;SDS011;8563;52.242;9.098;2023-03-29T13:10:29;5.03;;;4.53;;
16892;SDS011;8563;52.242;9.098;2023-03-29T13:13:13;5.63;;;4.93;;
16892;SDS011;8563;52.242;9.098;2023-03-29T13:15:47;4.50;;;4.10;;
16892;SDS011;8563;52.242;9.098;2023-03-29T13:18:27;3.77;;;3.47;;
16892;SDS011;8563;52.242;9.098;2023-03-29T13:21:11;4.20;;;3.80;;
16892;SDS011;8563;52.242;9.098;2023-03-29T13:23:54;7.27;;;4.37;;
16892;SDS011;8563;52.242;9.098;2023-03-29T13:26:39;4.30;;;3.90;;
16892;SDS011;8563;52.242;9.098;2023-03-29T13:29:22;3.80;;;3.43;;
16892;SDS011;8563;52.242;9.098;2023-03-29T13:32:15;4.07;;;3.30;;
16892;SDS011;8563;52.242;9.098;2023-03-29T13:34:58;4.10;;;3.50;;
16892;SDS011;8563;52.242;9.098;2023-03-29T13:37:39;4.33;;;2.60;;
16892;SDS011;8563;52.242;9.098;2023-03-29T13:40:26;2.97;;;2.50;;
16892;SDS011;8563;52.242;9.098;2023-03-29T13:43:07;4.50;;;2.90;;
16892;SDS011;8563;52.242;9.098;2023-03-29T13:45:43;3.10;;;2.80;;
16892;SDS011;8563;52.242;9.098;2023-03-29T13:48:20;12.00;;;10.07;;
16892;SDS011;8563;52.242;9.098;2023-03-29T13:50:56;11.30;;;8.90;;
16892;SDS011;8563;52.242;9.098;2023-03-29T13:53:31;21.00;;;15.63;;
16892;SDS011;8563;52.242;9.098;2023-03-29T13:56:08;5.60;;;5.10;;
16892;SDS011;8563;52.242;9.098;2023-03-29T13:58:48;8.43;;;6.87;;
16892;SDS011;8563;52.242;9.098;2023-03-29T14:01:26;6.07;;;4.93;;
16892;SDS011;8563;52.242;9.098;2023-03-29T14:04:01;7.53;;;6.27;;
16892;SDS011;8563;52.242;9.098;2023-03-29T14:06:36;14.60;;;11.97;;
16892;SDS011;8563;52.242;9.098;2023-03-29T14:09:09;12.23;;;9.20;;
16892;SDS011;8563;52.242;9.098;2023-03-29T14:11:44;6.27;;;5.13;;
16892;SDS011;8563;52.242;9.098;2023-03-29T14:14:19;7.70;;;6.87;;
16892;SDS011;8563;52.242;9.098;2023-03-29T14:16:55;5.57;;;5.07;;
16892;SDS011;8563;52.242;9.098;2023-03-29T14:19:28;6.13;;;5.37;;
16892;SDS011;8563;52.242;9.098;2023-03-29T14:22:05;6.73;;;4.90;;
16892;SDS011;8563;52.242;9.098;2023-03-29T14:24:43;6.53;;;4.77;;
16892;SDS011;8563;52.242;9.098;2023-03-29T14:27:18;6.30;;;4.77;;
16892;SDS011;8563;52.242;9.098;2023-03-29T14:29:52;7.17;;;4.87;;
16892;SDS011;8563;52.242;9.098;2023-03-29T14:32:28;6.63;;;4.40;;
16892;SDS011;8563;52.242;9.098;2023-03-29T14:35:02;5.37;;;4.57;;
16892;SDS011;8563;52.242;9.098;2023-03-29T14:37:34;5.53;;;4.80;;
16892;SDS011;8563;52.242;9.098;2023-03-29T14:40:11;5.70;;;5.20;;
16892;SDS011;8563;52.242;9.098;2023-03-29T14:42:48;6.10;;;4.87;;
16892;SDS011;8563;52.242;9.098;2023-03-29T14:45:21;5.97;;;4.87;;
16892;SDS011;8563;52.242;9.098;2023-03-29T14:47:55;5.63;;;4.80;;
16892;SDS011;8563;52.242;9.098;2023-03-29T14:50:27;6.97;;;5.50;;
16892;SDS011;8563;52.242;9.098;2023-03-29T14:53:00;6.40;;;5.10;;
16892;SDS011;8563;52.242;9.098;2023-03-29T14:55:33;5.57;;;4.90;;
16892;SDS011;8563;52.242;9.098;2023-03-29T14:58:12;6.83;;;5.40;;
16892;SDS011;8563;52.242;9.098;2023-03-29T15:00:50;8.33;;;5.60;;
16892;SDS011;8563;52.242;9.098;2023-03-29T15:03:24;9.07;;;6.07;;
16892;SDS011;8563;52.242;9.098;2023-03-29T15:05:58;7.17;;;5.30;;
16892;SDS011;8563;52.242;9.098;2023-03-29T15:08:32;6.97;;;5.03;;
16892;SDS011;8563;52.242;9.098;2023-03-29T15:11:10;6.43;;;5.30;;
16892;SDS011;8563;52.242;9.098;2023-03-29T15:13:45;7.70;;;5.27;;
16892;SDS011;8563;52.242;9.098;2023-03-29T15:16:19;8.67;;;5.50;;
16892;SDS011;8563;52.242;9.098;2023-03-29T15:18:54;8.57;;;5.70;;
16892;SDS011;8563;52.242;9.098;2023-03-29T15:21:28;6.80;;;5.70;;
16892;SDS011;8563;52.242;9.098;2023-03-29T15:24:02;6.90;;;5.60;;
16892;SDS011;8563;52.242;9.098;2023-03-29T15:26:36;8.93;;;6.03;;
16892;SDS011;8563;52.242;9.098;2023-03-29T15:29:10;6.30;;;5.23;;
16892;SDS011;8563;52.242;9.098;2023-03-29T15:31:52;9.43;;;6.20;;
16892;SDS011;8563;52.242;9.098;2023-03-29T15:34:28;7.50;;;5.97;;
16892;SDS011;8563;52.242;9.098;2023-03-29T15:37:01;7.00;;;5.67;;
16892;SDS011;8563;52.242;9.098;2023-03-29T15:39:33;8.13;;;5.50;;
16892;SDS011;8563;52.242;9.098;2023-03-29T15:42:07;6.90;;;5.53;;
16892;SDS011;8563;52.242;9.098;2023-03-29T15:44:40;7.70;;;6.47;;
16892;SDS011;8563;52.242;9.098;2023-03-29T15:47:13;8.20;;;5.97;;
16892;SDS011;8563;52.242;9.098;2023-03-29T15:49:47;6.77;;;6.10;;
16892;SDS011;8563;52.242;9.098;2023-03-29T15:52:20;6.80;;;5.30;;
16892;SDS011;8563;52.242;9.098;2023-03-29T15:54:52;7.43;;;5.70;;
16892;SDS011;8563;52.242;9.098;2023-03-29T15:57:24;8.77;;;5.83;;
16892;SDS011;8563;52.242;9.098;2023-03-29T15:59:56;9.20;;;6.60;;
16892;SDS011;8563;52.242;9.098;2023-03-29T16:02:29;7.23;;;6.23;;
16892;SDS011;8563;52.242;9.098;2023-03-29T16:05:02;7.60;;;6.23;;
16892;SDS011;8563;52.242;9.098;2023-03-29T16:07:35;7.03;;;5.97;;
16892;SDS011;8563;52.242;9.098;2023-03-29T16:10:07;8.83;;;6.23;;
16892;SDS011;8563;52.242;9.098;2023-03-29T16:12:40;8.67;;;5.63;;
16892;SDS011;8563;52.242;9.098;2023-03-29T16:15:13;7.87;;;6.57;;
16892;SDS011;8563;52.242;9.098;2023-03-29T16:17:48;6.50;;;5.87;;
16892;SDS011;8563;52.242;9.098;2023-03-29T16:20:22;12.17;;;8.90;;